sensor_id;sensor_type;location;lat;lon;timestamp;P1;durP1;ratioP1;P2;durP2;ratioP2
29504;SDS011;16452;54.174;12.092;2022-12-18T00:01:21;45.17;;;21.48;;
29504;SDS011;16452;54.174;12.092;2022-12-18T00:04:02;43.25;;;20.58;;
29504;SDS011;16452;54.174;12.092;2022-12-18T00:06:33;43.92;;;21.00;;
29504;SDS011;16452;54.174;12.092;2022-12-18T00:09:01;46.08;;;21.90;;
29504;SDS011;16452;54.174;12.092;2022-12-18T00:11:29;45.30;;;21.23;;
29504;SDS011;16452;54.174;12.092;2022-12-18T00:13:56;43.05;;;20.20;;
29504;SDS011;16452;54.174;12.092;2022-12-18T00:16:25;44.28;;;20.52;;
29504;SDS011;16452;54.174;12.092;2022-12-18T00:18:53;46.80;;;21.27;;
29504;SDS011;16452;54.174;12.092;2022-12-18T00:21:21;43.28;;;19.85;;
29504;SDS011;16452;54.174;12.092;2022-12-18T00:23:47;49.95;;;21.23;;
29504;SDS011;16452;54.174;12.092;2022-12-18T00:26:22;46.38;;;19.42;;
29504;SDS011;16452;54.174;12.092;2022-12-18T00:28:50;46.33;;;20.58;;
29504;SDS011;16452;54.174;12.092;2022-12-18T00:31:19;41.80;;;19.92;;
29504;SDS011;16452;54.174;12.092;2022-12-18T00:33:47;45.38;;;20.50;;
29504;SDS011;16452;54.174;12.092;2022-12-18T00:36:14;41.33;;;19.35;;
29504;SDS011;16452;54.174;12.092;2022-12-18T00:38:44;44.58;;;19.73;;
29504;SDS011;16452;54.174;12.092;2022-12-18T00:41:11;42.78;;;19.15;;
29504;SDS011;16452;54.174;12.092;2022-12-18T00:43:59;41.95;;;19.77;;
29504;SDS011;16452;54.174;12.092;2022-12-18T00:46:25;38.45;;;18.33;;
29504;SDS011;16452;54.174;12.092;2022-12-18T00:48:50;39.47;;;18.52;;
29504;SDS011;16452;54.174;12.092;2022-12-18T00:51:16;43.10;;;19.10;;
29504;SDS011;16452;54.174;12.092;2022-12-18T00:53:42;39.60;;;19.17;;
29504;SDS011;16452;54.174;12.092;2022-12-18T00:56:07;43.78;;;19.13;;
29504;SDS011;16452;54.174;12.092;2022-12-18T00:58:33;40.30;;;18.20;;
29504;SDS011;16452;54.174;12.092;2022-12-18T01:00:59;40.92;;;18.60;;
29504;SDS011;16452;54.174;12.092;2022-12-18T01:03:25;43.28;;;20.13;;
29504;SDS011;16452;54.174;12.092;2022-12-18T01:05:50;45.10;;;19.90;;
29504;SDS011;16452;54.174;12.092;2022-12-18T01:08:16;44.88;;;19.80;;
29504;SDS011;16452;54.174;12.092;2022-12-18T01:10:42;40.42;;;19.08;;
29504;SDS011;16452;54.174;12.092;2022-12-18T01:13:07;45.28;;;19.58;;
29504;SDS011;16452;54.174;12.092;2022-12-18T01:15:33;46.90;;;20.52;;
29504;SDS011;16452;54.174;12.092;2022-12-18T01:17:59;42.40;;;19.48;;
29504;SDS011;16452;54.174;12.092;2022-12-18T01:20:25;41.40;;;19.08;;
29504;SDS011;16452;54.174;12.092;2022-12-18T01:22:50;43.13;;;19.60;;
29504;SDS011;16452;54.174;12.092;2022-12-18T01:25:19;43.35;;;19.88;;
29504;SDS011;16452;54.174;12.092;2022-12-18T01:27:45;49.15;;;22.10;;
29504;SDS011;16452;54.174;12.092;2022-12-18T01:30:11;47.03;;;21.13;;
29504;SDS011;16452;54.174;12.092;2022-12-18T01:32:37;41.65;;;20.20;;
29504;SDS011;16452;54.174;12.092;2022-12-18T01:35:02;44.88;;;19.80;;
29504;SDS011;16452;54.174;12.092;2022-12-18T01:37:29;47.85;;;20.08;;
29504;SDS011;16452;54.174;12.092;2022-12-18T01:39:54;47.45;;;20.13;;
29504;SDS011;16452;54.174;12.092;2022-12-18T01:42:20;43.47;;;19.15;;
29504;SDS011;16452;54.174;12.092;2022-12-18T01:47:26;43.95;;;20.00;;
29504;SDS011;16452;54.174;12.092;2022-12-18T01:50:03;45.45;;;20.27;;
29504;SDS011;16452;54.174;12.092;2022-12-18T01:55:50;43.35;;;18.85;;
29504;SDS011;16452;54.174;12.092;2022-12-18T01:58:19;43.28;;;19.60;;
29504;SDS011;16452;54.174;12.092;2022-12-18T02:00:49;44.25;;;19.13;;
29504;SDS011;16452;54.174;12.092;2022-12-18T02:03:15;47.30;;;20.65;;
29504;SDS011;16452;54.174;12.092;2022-12-18T02:05:44;46.30;;;20.15;;
29504;SDS011;16452;54.174;12.092;2022-12-18T02:08:30;48.28;;;19.88;;
29504;SDS011;16452;54.174;12.092;2022-12-18T02:11:15;43.15;;;19.55;;
29504;SDS011;16452;54.174;12.092;2022-12-18T02:14:05;41.42;;;19.00;;
29504;SDS011;16452;54.174;12.092;2022-12-18T02:22:26;40.38;;;18.38;;
29504;SDS011;16452;54.174;12.092;2022-12-18T02:28:06;43.95;;;20.17;;
29504;SDS011;16452;54.174;12.092;2022-12-18T02:30:37;46.25;;;20.00;;
29504;SDS011;16452;54.174;12.092;2022-12-18T02:33:06;46.47;;;19.48;;
29504;SDS011;16452;54.174;12.092;2022-12-18T02:35:36;47.33;;;19.60;;
29504;SDS011;16452;54.174;12.092;2022-12-18T02:38:03;45.97;;;19.75;;
29504;SDS011;16452;54.174;12.092;2022-12-18T02:40:30;42.95;;;19.90;;
29504;SDS011;16452;54.174;12.092;2022-12-18T02:43:02;45.90;;;19.05;;
29504;SDS011;16452;54.174;12.092;2022-12-18T02:45:37;42.90;;;18.80;;
29504;SDS011;16452;54.174;12.092;2022-12-18T02:48:13;39.20;;;18.98;;
29504;SDS011;16452;54.174;12.092;2022-12-18T02:50:41;41.80;;;18.77;;
29504;SDS011;16452;54.174;12.092;2022-12-18T02:56:38;41.88;;;17.50;;
29504;SDS011;16452;54.174;12.092;2022-12-18T02:59:13;40.65;;;18.40;;
29504;SDS011;16452;54.174;12.092;2022-12-18T03:07:42;41.85;;;18.70;;
29504;SDS011;16452;54.174;12.092;2022-12-18T03:10:34;41.28;;;19.05;;
29504;SDS011;16452;54.174;12.092;2022-12-18T03:13:08;42.83;;;19.35;;
29504;SDS011;16452;54.174;12.092;2022-12-18T03:15:42;41.72;;;18.60;;
29504;SDS011;16452;54.174;12.092;2022-12-18T03:21:26;39.63;;;18.30;;
29504;SDS011;16452;54.174;12.092;2022-12-18T03:23:58;39.28;;;17.67;;
29504;SDS011;16452;54.174;12.092;2022-12-18T03:26:26;40.83;;;18.20;;
29504;SDS011;16452;54.174;12.092;2022-12-18T03:28:56;40.85;;;18.02;;
29504;SDS011;16452;54.174;12.092;2022-12-18T03:31:27;38.25;;;17.30;;
29504;SDS011;16452;54.174;12.092;2022-12-18T03:33:59;36.05;;;16.30;;
29504;SDS011;16452;54.174;12.092;2022-12-18T03:36:32;36.40;;;17.02;;
29504;SDS011;16452;54.174;12.092;2022-12-18T03:38:58;41.20;;;17.70;;
29504;SDS011;16452;54.174;12.092;2022-12-18T03:41:33;40.60;;;18.92;;
29504;SDS011;16452;54.174;12.092;2022-12-18T03:46:50;40.20;;;19.20;;
29504;SDS011;16452;54.174;12.092;2022-12-18T03:52:35;42.17;;;19.02;;
29504;SDS011;16452;54.174;12.092;2022-12-18T03:55:17;39.25;;;18.00;;
29504;SDS011;16452;54.174;12.092;2022-12-18T03:57:44;39.95;;;17.35;;
29504;SDS011;16452;54.174;12.092;2022-12-18T04:00:13;37.35;;;17.40;;
29504;SDS011;16452;54.174;12.092;2022-12-18T04:02:46;35.20;;;16.55;;
29504;SDS011;16452;54.174;12.092;2022-12-18T04:05:17;35.92;;;16.58;;
29504;SDS011;16452;54.174;12.092;2022-12-18T04:07:45;37.17;;;17.02;;
29504;SDS011;16452;54.174;12.092;2022-12-18T04:10:15;36.30;;;17.10;;
29504;SDS011;16452;54.174;12.092;2022-12-18T04:12:41;38.03;;;16.90;;
29504;SDS011;16452;54.174;12.092;2022-12-18T04:15:07;35.67;;;16.38;;
29504;SDS011;16452;54.174;12.092;2022-12-18T04:17:35;35.30;;;16.38;;
29504;SDS011;16452;54.174;12.092;2022-12-18T04:20:00;31.70;;;15.32;;
29504;SDS011;16452;54.174;12.092;2022-12-18T04:22:26;34.70;;;15.90;;
29504;SDS011;16452;54.174;12.092;2022-12-18T04:24:52;36.35;;;16.80;;
29504;SDS011;16452;54.174;12.092;2022-12-18T04:27:18;35.25;;;16.30;;
29504;SDS011;16452;54.174;12.092;2022-12-18T04:29:44;37.50;;;17.38;;
29504;SDS011;16452;54.174;12.092;2022-12-18T04:32:10;35.72;;;16.88;;
29504;SDS011;16452;54.174;12.092;2022-12-18T04:34:35;36.65;;;16.55;;
29504;SDS011;16452;54.174;12.092;2022-12-18T04:37:01;37.95;;;16.98;;
29504;SDS011;16452;54.174;12.092;2022-12-18T04:39:27;35.83;;;16.48;;
29504;SDS011;16452;54.174;12.092;2022-12-18T04:41:53;33.75;;;15.88;;
29504;SDS011;16452;54.174;12.092;2022-12-18T04:44:18;32.15;;;15.00;;
29504;SDS011;16452;54.174;12.092;2022-12-18T04:46:44;34.17;;;15.48;;
29504;SDS011;16452;54.174;12.092;2022-12-18T04:49:10;34.88;;;16.65;;
29504;SDS011;16452;54.174;12.092;2022-12-18T04:51:36;31.58;;;15.30;;
29504;SDS011;16452;54.174;12.092;2022-12-18T04:54:02;35.40;;;16.40;;
29504;SDS011;16452;54.174;12.092;2022-12-18T04:56:30;35.10;;;14.65;;
29504;SDS011;16452;54.174;12.092;2022-12-18T04:58:56;34.53;;;15.18;;
29504;SDS011;16452;54.174;12.092;2022-12-18T05:01:22;33.28;;;14.93;;
29504;SDS011;16452;54.174;12.092;2022-12-18T05:03:48;33.05;;;15.02;;
29504;SDS011;16452;54.174;12.092;2022-12-18T05:06:13;32.00;;;14.32;;
29504;SDS011;16452;54.174;12.092;2022-12-18T05:08:39;33.38;;;15.15;;
29504;SDS011;16452;54.174;12.092;2022-12-18T05:11:06;32.13;;;14.57;;
29504;SDS011;16452;54.174;12.092;2022-12-18T05:13:34;31.13;;;14.25;;
29504;SDS011;16452;54.174;12.092;2022-12-18T05:16:01;30.23;;;14.60;;
29504;SDS011;16452;54.174;12.092;2022-12-18T05:18:28;37.10;;;15.32;;
29504;SDS011;16452;54.174;12.092;2022-12-18T05:20:54;33.92;;;15.35;;
29504;SDS011;16452;54.174;12.092;2022-12-18T05:23:19;34.50;;;14.75;;
29504;SDS011;16452;54.174;12.092;2022-12-18T05:25:53;33.60;;;13.80;;
29504;SDS011;16452;54.174;12.092;2022-12-18T05:28:24;29.20;;;14.70;;
29504;SDS011;16452;54.174;12.092;2022-12-18T05:30:56;34.92;;;15.15;;
29504;SDS011;16452;54.174;12.092;2022-12-18T05:33:24;34.72;;;15.63;;
29504;SDS011;16452;54.174;12.092;2022-12-18T05:35:54;29.55;;;14.27;;
29504;SDS011;16452;54.174;12.092;2022-12-18T05:38:23;34.17;;;14.07;;
29504;SDS011;16452;54.174;12.092;2022-12-18T05:40:51;32.28;;;14.20;;
29504;SDS011;16452;54.174;12.092;2022-12-18T05:43:18;30.42;;;14.60;;
29504;SDS011;16452;54.174;12.092;2022-12-18T05:45:46;30.45;;;13.77;;
29504;SDS011;16452;54.174;12.092;2022-12-18T05:48:12;27.33;;;12.82;;
29504;SDS011;16452;54.174;12.092;2022-12-18T05:50:39;31.30;;;14.57;;
29504;SDS011;16452;54.174;12.092;2022-12-18T05:53:07;33.85;;;14.35;;
29504;SDS011;16452;54.174;12.092;2022-12-18T05:55:33;31.25;;;14.07;;
29504;SDS011;16452;54.174;12.092;2022-12-18T05:58:01;34.08;;;14.52;;
29504;SDS011;16452;54.174;12.092;2022-12-18T06:00:28;30.88;;;14.15;;
29504;SDS011;16452;54.174;12.092;2022-12-18T06:02:53;32.97;;;14.70;;
29504;SDS011;16452;54.174;12.092;2022-12-18T06:05:19;33.67;;;14.15;;
29504;SDS011;16452;54.174;12.092;2022-12-18T06:07:45;29.85;;;13.43;;
29504;SDS011;16452;54.174;12.092;2022-12-18T06:10:11;31.88;;;14.63;;
29504;SDS011;16452;54.174;12.092;2022-12-18T06:12:37;33.63;;;13.98;;
29504;SDS011;16452;54.174;12.092;2022-12-18T06:15:03;31.10;;;13.75;;
29504;SDS011;16452;54.174;12.092;2022-12-18T06:17:30;29.98;;;13.27;;
29504;SDS011;16452;54.174;12.092;2022-12-18T06:19:57;32.88;;;15.02;;
29504;SDS011;16452;54.174;12.092;2022-12-18T06:22:23;32.58;;;14.15;;
29504;SDS011;16452;54.174;12.092;2022-12-18T06:24:49;28.85;;;13.52;;
29504;SDS011;16452;54.174;12.092;2022-12-18T06:27:15;29.08;;;13.40;;
29504;SDS011;16452;54.174;12.092;2022-12-18T06:29:41;31.17;;;13.85;;
29504;SDS011;16452;54.174;12.092;2022-12-18T06:32:10;32.20;;;14.43;;
29504;SDS011;16452;54.174;12.092;2022-12-18T06:34:37;33.33;;;15.65;;
29504;SDS011;16452;54.174;12.092;2022-12-18T06:37:03;31.30;;;13.02;;
29504;SDS011;16452;54.174;12.092;2022-12-18T06:39:28;30.92;;;13.82;;
29504;SDS011;16452;54.174;12.092;2022-12-18T06:41:54;31.08;;;13.32;;
29504;SDS011;16452;54.174;12.092;2022-12-18T06:44:20;38.03;;;14.35;;
29504;SDS011;16452;54.174;12.092;2022-12-18T06:46:47;32.58;;;13.45;;
29504;SDS011;16452;54.174;12.092;2022-12-18T06:49:12;34.38;;;14.68;;
29504;SDS011;16452;54.174;12.092;2022-12-18T06:51:38;35.58;;;14.75;;
29504;SDS011;16452;54.174;12.092;2022-12-18T06:54:04;33.78;;;14.93;;
29504;SDS011;16452;54.174;12.092;2022-12-18T06:56:30;33.55;;;13.60;;
29504;SDS011;16452;54.174;12.092;2022-12-18T06:58:55;34.58;;;14.20;;
29504;SDS011;16452;54.174;12.092;2022-12-18T07:01:22;33.28;;;14.63;;
29504;SDS011;16452;54.174;12.092;2022-12-18T07:03:51;28.90;;;13.00;;
29504;SDS011;16452;54.174;12.092;2022-12-18T07:06:19;31.30;;;13.98;;
29504;SDS011;16452;54.174;12.092;2022-12-18T07:08:47;30.52;;;13.25;;
29504;SDS011;16452;54.174;12.092;2022-12-18T07:11:14;28.70;;;13.82;;
29504;SDS011;16452;54.174;12.092;2022-12-18T07:13:40;28.75;;;13.30;;
29504;SDS011;16452;54.174;12.092;2022-12-18T07:16:07;33.50;;;13.40;;
29504;SDS011;16452;54.174;12.092;2022-12-18T07:18:36;29.42;;;13.65;;
29504;SDS011;16452;54.174;12.092;2022-12-18T07:21:06;30.75;;;13.93;;
29504;SDS011;16452;54.174;12.092;2022-12-18T07:23:38;30.40;;;14.75;;
29504;SDS011;16452;54.174;12.092;2022-12-18T07:26:06;32.47;;;14.23;;
29504;SDS011;16452;54.174;12.092;2022-12-18T07:28:37;32.15;;;13.77;;
29504;SDS011;16452;54.174;12.092;2022-12-18T07:31:05;29.05;;;13.77;;
29504;SDS011;16452;54.174;12.092;2022-12-18T07:33:33;32.75;;;13.73;;
29504;SDS011;16452;54.174;12.092;2022-12-18T07:35:59;28.83;;;13.88;;
29504;SDS011;16452;54.174;12.092;2022-12-18T07:38:27;30.33;;;14.10;;
29504;SDS011;16452;54.174;12.092;2022-12-18T07:40:53;29.77;;;13.80;;
29504;SDS011;16452;54.174;12.092;2022-12-18T07:43:19;27.50;;;13.65;;
29504;SDS011;16452;54.174;12.092;2022-12-18T07:45:45;28.70;;;13.18;;
29504;SDS011;16452;54.174;12.092;2022-12-18T07:48:13;29.15;;;13.77;;
29504;SDS011;16452;54.174;12.092;2022-12-18T07:50:39;31.80;;;13.52;;
29504;SDS011;16452;54.174;12.092;2022-12-18T07:53:05;31.98;;;14.40;;
29504;SDS011;16452;54.174;12.092;2022-12-18T07:55:31;30.75;;;13.48;;
29504;SDS011;16452;54.174;12.092;2022-12-18T07:58:00;30.10;;;14.40;;
29504;SDS011;16452;54.174;12.092;2022-12-18T08:00:27;31.07;;;13.83;;
29504;SDS011;16452;54.174;12.092;2022-12-18T08:02:53;32.40;;;14.15;;
29504;SDS011;16452;54.174;12.092;2022-12-18T08:05:18;32.95;;;13.07;;
29504;SDS011;16452;54.174;12.092;2022-12-18T08:07:45;32.35;;;13.95;;
29504;SDS011;16452;54.174;12.092;2022-12-18T08:10:12;31.30;;;13.45;;
29504;SDS011;16452;54.174;12.092;2022-12-18T08:12:38;30.90;;;13.40;;
29504;SDS011;16452;54.174;12.092;2022-12-18T08:15:04;31.63;;;13.48;;
29504;SDS011;16452;54.174;12.092;2022-12-18T08:17:31;28.13;;;13.20;;
29504;SDS011;16452;54.174;12.092;2022-12-18T08:19:57;27.30;;;13.35;;
29504;SDS011;16452;54.174;12.092;2022-12-18T08:22:26;31.55;;;14.32;;
29504;SDS011;16452;54.174;12.092;2022-12-18T08:24:52;32.65;;;14.13;;
29504;SDS011;16452;54.174;12.092;2022-12-18T08:27:18;29.33;;;13.65;;
29504;SDS011;16452;54.174;12.092;2022-12-18T08:29:44;28.17;;;13.70;;
29504;SDS011;16452;54.174;12.092;2022-12-18T08:32:09;29.38;;;13.60;;
29504;SDS011;16452;54.174;12.092;2022-12-18T08:34:35;28.42;;;13.27;;
29504;SDS011;16452;54.174;12.092;2022-12-18T08:37:01;28.17;;;13.82;;
29504;SDS011;16452;54.174;12.092;2022-12-18T08:39:27;28.85;;;13.55;;
29504;SDS011;16452;54.174;12.092;2022-12-18T08:41:52;27.58;;;14.02;;
29504;SDS011;16452;54.174;12.092;2022-12-18T08:44:36;28.70;;;12.93;;
29504;SDS011;16452;54.174;12.092;2022-12-18T08:47:02;27.77;;;13.57;;
29504;SDS011;16452;54.174;12.092;2022-12-18T08:49:29;31.13;;;13.95;;
29504;SDS011;16452;54.174;12.092;2022-12-18T08:51:55;29.88;;;14.02;;
29504;SDS011;16452;54.174;12.092;2022-12-18T08:54:22;31.90;;;14.10;;
29504;SDS011;16452;54.174;12.092;2022-12-18T08:56:48;30.30;;;13.95;;
29504;SDS011;16452;54.174;12.092;2022-12-18T08:59:15;29.00;;;13.63;;
29504;SDS011;16452;54.174;12.092;2022-12-18T09:01:42;30.75;;;14.00;;
29504;SDS011;16452;54.174;12.092;2022-12-18T09:04:08;30.30;;;14.05;;
29504;SDS011;16452;54.174;12.092;2022-12-18T09:06:35;28.13;;;14.15;;
29504;SDS011;16452;54.174;12.092;2022-12-18T09:09:01;29.20;;;14.65;;
29504;SDS011;16452;54.174;12.092;2022-12-18T09:11:28;35.33;;;14.52;;
29504;SDS011;16452;54.174;12.092;2022-12-18T09:13:54;32.72;;;14.98;;
29504;SDS011;16452;54.174;12.092;2022-12-18T09:16:21;29.48;;;14.57;;
29504;SDS011;16452;54.174;12.092;2022-12-18T09:18:49;28.92;;;13.90;;
29504;SDS011;16452;54.174;12.092;2022-12-18T09:21:15;29.35;;;14.35;;
29504;SDS011;16452;54.174;12.092;2022-12-18T09:23:48;27.95;;;13.77;;
29504;SDS011;16452;54.174;12.092;2022-12-18T09:26:19;33.85;;;15.00;;
29504;SDS011;16452;54.174;12.092;2022-12-18T09:28:46;31.02;;;14.35;;
29504;SDS011;16452;54.174;12.092;2022-12-18T09:31:15;29.70;;;13.75;;
29504;SDS011;16452;54.174;12.092;2022-12-18T09:33:43;32.38;;;15.07;;
29504;SDS011;16452;54.174;12.092;2022-12-18T09:36:13;30.50;;;14.23;;
29504;SDS011;16452;54.174;12.092;2022-12-18T09:38:41;27.27;;;13.13;;
29504;SDS011;16452;54.174;12.092;2022-12-18T09:44:19;28.35;;;13.85;;
29504;SDS011;16452;54.174;12.092;2022-12-18T09:47:39;31.13;;;14.65;;
29504;SDS011;16452;54.174;12.092;2022-12-18T09:50:05;29.50;;;14.43;;
29504;SDS011;16452;54.174;12.092;2022-12-18T09:52:53;32.55;;;14.80;;
29504;SDS011;16452;54.174;12.092;2022-12-18T09:55:24;31.88;;;13.93;;
29504;SDS011;16452;54.174;12.092;2022-12-18T09:58:06;29.00;;;14.10;;
29504;SDS011;16452;54.174;12.092;2022-12-18T10:00:45;27.52;;;14.32;;
29504;SDS011;16452;54.174;12.092;2022-12-18T10:03:12;32.10;;;14.48;;
29504;SDS011;16452;54.174;12.092;2022-12-18T10:05:46;36.03;;;15.73;;
29504;SDS011;16452;54.174;12.092;2022-12-18T10:11:21;32.47;;;15.48;;
29504;SDS011;16452;54.174;12.092;2022-12-18T10:17:14;31.67;;;16.23;;
29504;SDS011;16452;54.174;12.092;2022-12-18T10:20:04;39.20;;;16.45;;
29504;SDS011;16452;54.174;12.092;2022-12-18T10:23:04;36.00;;;16.75;;
29504;SDS011;16452;54.174;12.092;2022-12-18T10:25:55;36.65;;;16.17;;
29504;SDS011;16452;54.174;12.092;2022-12-18T10:28:32;38.40;;;17.45;;
29504;SDS011;16452;54.174;12.092;2022-12-18T10:31:07;34.97;;;16.35;;
29504;SDS011;16452;54.174;12.092;2022-12-18T10:33:42;36.72;;;16.65;;
29504;SDS011;16452;54.174;12.092;2022-12-18T10:36:08;38.53;;;17.23;;
29504;SDS011;16452;54.174;12.092;2022-12-18T10:38:34;37.22;;;16.75;;
29504;SDS011;16452;54.174;12.092;2022-12-18T10:41:01;38.63;;;16.92;;
29504;SDS011;16452;54.174;12.092;2022-12-18T10:46:50;36.55;;;16.83;;
29504;SDS011;16452;54.174;12.092;2022-12-18T10:49:28;35.97;;;16.48;;
29504;SDS011;16452;54.174;12.092;2022-12-18T10:52:05;35.65;;;16.92;;
29504;SDS011;16452;54.174;12.092;2022-12-18T10:55:04;36.38;;;17.25;;
29504;SDS011;16452;54.174;12.092;2022-12-18T10:57:37;36.22;;;16.45;;
29504;SDS011;16452;54.174;12.092;2022-12-18T11:02:53;34.38;;;16.52;;
29504;SDS011;16452;54.174;12.092;2022-12-18T11:05:30;40.03;;;17.05;;
29504;SDS011;16452;54.174;12.092;2022-12-18T11:07:59;35.50;;;16.77;;
29504;SDS011;16452;54.174;12.092;2022-12-18T11:10:36;37.35;;;16.63;;
29504;SDS011;16452;54.174;12.092;2022-12-18T11:15:45;41.03;;;17.58;;
29504;SDS011;16452;54.174;12.092;2022-12-18T11:20:59;38.42;;;17.85;;
29504;SDS011;16452;54.174;12.092;2022-12-18T11:23:52;40.40;;;17.85;;
29504;SDS011;16452;54.174;12.092;2022-12-18T11:26:19;41.47;;;18.25;;
29504;SDS011;16452;54.174;12.092;2022-12-18T11:28:47;36.35;;;17.80;;
29504;SDS011;16452;54.174;12.092;2022-12-18T11:33:57;38.17;;;17.63;;
29504;SDS011;16452;54.174;12.092;2022-12-18T11:36:40;42.28;;;18.35;;
29504;SDS011;16452;54.174;12.092;2022-12-18T11:42:04;40.17;;;17.85;;
29504;SDS011;16452;54.174;12.092;2022-12-18T11:48:12;39.30;;;17.73;;
29504;SDS011;16452;54.174;12.092;2022-12-18T11:50:50;37.55;;;18.05;;
29504;SDS011;16452;54.174;12.092;2022-12-18T11:53:25;38.10;;;17.85;;
29504;SDS011;16452;54.174;12.092;2022-12-18T11:59:22;38.03;;;17.35;;
29504;SDS011;16452;54.174;12.092;2022-12-18T12:02:01;40.88;;;18.42;;
29504;SDS011;16452;54.174;12.092;2022-12-18T12:13:52;41.63;;;18.50;;
29504;SDS011;16452;54.174;12.092;2022-12-18T12:22:21;40.58;;;17.52;;
29504;SDS011;16452;54.174;12.092;2022-12-18T12:25:13;35.88;;;17.38;;
29504;SDS011;16452;54.174;12.092;2022-12-18T12:34:43;36.10;;;16.83;;
29504;SDS011;16452;54.174;12.092;2022-12-18T12:40:31;41.80;;;17.48;;
29504;SDS011;16452;54.174;12.092;2022-12-18T12:46:12;40.67;;;18.10;;
29504;SDS011;16452;54.174;12.092;2022-12-18T12:48:43;42.47;;;18.70;;
29504;SDS011;16452;54.174;12.092;2022-12-18T12:53:50;35.95;;;17.02;;
29504;SDS011;16452;54.174;12.092;2022-12-18T12:56:17;36.92;;;17.55;;
29504;SDS011;16452;54.174;12.092;2022-12-18T13:01:28;42.80;;;18.92;;
29504;SDS011;16452;54.174;12.092;2022-12-18T13:04:27;39.88;;;18.92;;
29504;SDS011;16452;54.174;12.092;2022-12-18T13:07:26;38.00;;;18.75;;
29504;SDS011;16452;54.174;12.092;2022-12-18T13:20:48;38.28;;;17.88;;
29504;SDS011;16452;54.174;12.092;2022-12-18T13:23:27;44.10;;;19.27;;
29504;SDS011;16452;54.174;12.092;2022-12-18T13:34:22;39.28;;;17.80;;
29504;SDS011;16452;54.174;12.092;2022-12-18T13:36:53;42.40;;;18.60;;
29504;SDS011;16452;54.174;12.092;2022-12-18T13:44:36;43.25;;;19.35;;
29504;SDS011;16452;54.174;12.092;2022-12-18T13:47:05;46.22;;;19.35;;
29504;SDS011;16452;54.174;12.092;2022-12-18T13:50:22;37.80;;;16.77;;
29504;SDS011;16452;54.174;12.092;2022-12-18T13:52:51;41.42;;;19.60;;
29504;SDS011;16452;54.174;12.092;2022-12-18T13:55:19;43.10;;;19.05;;
29504;SDS011;16452;54.174;12.092;2022-12-18T13:57:46;39.70;;;17.85;;
29504;SDS011;16452;54.174;12.092;2022-12-18T14:02:46;42.28;;;18.55;;
29504;SDS011;16452;54.174;12.092;2022-12-18T14:05:28;36.80;;;18.35;;
29504;SDS011;16452;54.174;12.092;2022-12-18T14:08:00;39.78;;;18.83;;
29504;SDS011;16452;54.174;12.092;2022-12-18T14:10:47;39.22;;;18.15;;
29504;SDS011;16452;54.174;12.092;2022-12-18T14:13:47;41.47;;;19.65;;
29504;SDS011;16452;54.174;12.092;2022-12-18T14:16:07;44.08;;;18.48;;
29504;SDS011;16452;54.174;12.092;2022-12-18T14:18:44;41.22;;;19.30;;
29504;SDS011;16452;54.174;12.092;2022-12-18T14:21:21;38.10;;;18.77;;
29504;SDS011;16452;54.174;12.092;2022-12-18T14:24:04;38.92;;;17.92;;
29504;SDS011;16452;54.174;12.092;2022-12-18T14:26:34;46.53;;;19.08;;
29504;SDS011;16452;54.174;12.092;2022-12-18T14:29:00;41.50;;;20.30;;
29504;SDS011;16452;54.174;12.092;2022-12-18T14:34:42;40.40;;;18.85;;
29504;SDS011;16452;54.174;12.092;2022-12-18T14:37:13;46.63;;;19.65;;
29504;SDS011;16452;54.174;12.092;2022-12-18T14:39:56;45.28;;;20.83;;
29504;SDS011;16452;54.174;12.092;2022-12-18T14:42:30;46.92;;;20.45;;
29504;SDS011;16452;54.174;12.092;2022-12-18T14:48:18;44.72;;;19.73;;
29504;SDS011;16452;54.174;12.092;2022-12-18T14:50:54;46.05;;;20.80;;
29504;SDS011;16452;54.174;12.092;2022-12-18T14:53:48;46.00;;;20.33;;
29504;SDS011;16452;54.174;12.092;2022-12-18T14:56:29;45.92;;;20.88;;
29504;SDS011;16452;54.174;12.092;2022-12-18T14:59:03;45.53;;;21.00;;
29504;SDS011;16452;54.174;12.092;2022-12-18T15:04:48;43.55;;;19.88;;
29504;SDS011;16452;54.174;12.092;2022-12-18T15:07:34;47.85;;;20.50;;
29504;SDS011;16452;54.174;12.092;2022-12-18T15:10:19;48.10;;;20.27;;
29504;SDS011;16452;54.174;12.092;2022-12-18T15:18:09;50.03;;;21.27;;
29504;SDS011;16452;54.174;12.092;2022-12-18T15:20:49;44.08;;;20.77;;
29504;SDS011;16452;54.174;12.092;2022-12-18T15:23:34;49.92;;;21.30;;
29504;SDS011;16452;54.174;12.092;2022-12-18T15:26:11;44.90;;;20.75;;
29504;SDS011;16452;54.174;12.092;2022-12-18T15:28:44;47.33;;;20.65;;
29504;SDS011;16452;54.174;12.092;2022-12-18T15:31:24;43.42;;;20.65;;
29504;SDS011;16452;54.174;12.092;2022-12-18T15:36:59;46.40;;;20.85;;
29504;SDS011;16452;54.174;12.092;2022-12-18T15:39:25;46.78;;;20.55;;
29504;SDS011;16452;54.174;12.092;2022-12-18T15:41:50;48.17;;;21.80;;
29504;SDS011;16452;54.174;12.092;2022-12-18T15:44:37;42.13;;;20.48;;
29504;SDS011;16452;54.174;12.092;2022-12-18T15:47:07;48.08;;;22.88;;
29504;SDS011;16452;54.174;12.092;2022-12-18T15:49:37;50.50;;;20.90;;
29504;SDS011;16452;54.174;12.092;2022-12-18T15:52:04;45.63;;;20.42;;
29504;SDS011;16452;54.174;12.092;2022-12-18T15:54:30;46.92;;;20.65;;
29504;SDS011;16452;54.174;12.092;2022-12-18T15:57:14;44.22;;;21.08;;
29504;SDS011;16452;54.174;12.092;2022-12-18T15:59:50;50.30;;;21.95;;
29504;SDS011;16452;54.174;12.092;2022-12-18T16:02:21;45.92;;;19.60;;
29504;SDS011;16452;54.174;12.092;2022-12-18T16:04:47;42.80;;;19.58;;
29504;SDS011;16452;54.174;12.092;2022-12-18T16:07:15;49.58;;;21.98;;
29504;SDS011;16452;54.174;12.092;2022-12-18T16:09:41;45.65;;;19.70;;
29504;SDS011;16452;54.174;12.092;2022-12-18T16:12:11;43.72;;;19.90;;
29504;SDS011;16452;54.174;12.092;2022-12-18T16:15:03;45.35;;;20.20;;
29504;SDS011;16452;54.174;12.092;2022-12-18T16:17:31;42.38;;;19.70;;
29504;SDS011;16452;54.174;12.092;2022-12-18T16:19:56;48.17;;;19.55;;
29504;SDS011;16452;54.174;12.092;2022-12-18T16:22:23;43.05;;;19.75;;
29504;SDS011;16452;54.174;12.092;2022-12-18T16:24:52;41.80;;;19.58;;
29504;SDS011;16452;54.174;12.092;2022-12-18T16:27:20;46.33;;;19.10;;
29504;SDS011;16452;54.174;12.092;2022-12-18T16:29:47;45.70;;;19.58;;
29504;SDS011;16452;54.174;12.092;2022-12-18T16:32:18;45.53;;;19.42;;
29504;SDS011;16452;54.174;12.092;2022-12-18T16:34:46;41.17;;;19.05;;
29504;SDS011;16452;54.174;12.092;2022-12-18T16:37:12;44.08;;;20.08;;
29504;SDS011;16452;54.174;12.092;2022-12-18T16:39:40;48.70;;;20.75;;
29504;SDS011;16452;54.174;12.092;2022-12-18T16:42:11;47.03;;;20.80;;
29504;SDS011;16452;54.174;12.092;2022-12-18T16:44:42;41.15;;;19.40;;
29504;SDS011;16452;54.174;12.092;2022-12-18T16:47:09;38.20;;;17.83;;
29504;SDS011;16452;54.174;12.092;2022-12-18T16:49:34;45.83;;;20.08;;
29504;SDS011;16452;54.174;12.092;2022-12-18T16:52:00;44.78;;;19.38;;
29504;SDS011;16452;54.174;12.092;2022-12-18T16:54:26;45.95;;;20.02;;